Historyczne dane pomiarowe

Dodano dane terminowe – wersja testowa.

Dane z okresu 1951-2019

Wersja bazy: 1.34 [2019-03-16, lista zmian], aktualizacja planowana na 2019-04-15

Dane meteo z obszaru Polski uzyskane na podstawie danych udostępnionych przez Instytut Meteorologii i Gospodarki Wodnej – Państwowy Instytut Badawczy.

 

Wybierz Datę:    

       

TemperaturaWilgotnośćWiatrCiśnienieOpadyŚniegCzas trwania zjawisk
 Stacja t tx tn tng RH VA  wxwx mslp ppp RRR   cm mm wxwxwxwxwxwxwx
1956-11-09 -2.4 1.2 -5.1-10.1 80.3- 5.0 2.0---- 0.0------------
1956-11-08 -1.4 4.0 -4.6 -9.5 85.0- 2.7 0.3---- 0.0------------
1956-11-07 1.6 3.4 -0.1 -0.8 88.5- 5.3 2.0---- 0.3------------
1956-11-06 1.4 4.2 -0.1 -2.2 88.5- 5.3 5.3---- 0.2------------
1956-11-05 5.0 8.4 0.6 -4.3 84.0- 6.0 5.0---- 0.5------------
1956-11-04 0.8 5.0 -4.1 -9.3 76.8- 1.0 1.7---- 0.4------------
1956-11-03 -0.6 4.0 -2.7 -7.9 82.0- 1.7 0.7---- 0.0------------
1956-11-02 1.0 3.6 0.0 -1.2 94.3- 7.7 1.0---- 0.3------------
1956-11-01 -1.0 2.3 -8.2-12.1 70.8- 4.3 2.3---- 0.1------------
1956-10-31 -5.0 -0.2 -6.8 -7.2 77.8- 1.0 3.0---- 0.0------------
1956-10-30 0.7 6.3 -0.8 1.7 93.5- 8.0 6.3---- 0.0------------
1956-10-29 5.8 8.9 4.8 5.1 95.5- 8.0 1.3---- 4.3------------
1956-10-28 8.9 10.5 8.1 8.0 98.0- 8.0 3.7---- 14.8------------
1956-10-27 8.8 10.0 5.9 5.1 96.0- 8.0 4.3---- 3.1------------
1956-10-26 7.1 10.8 6.4 5.9 93.5- 8.0 1.0---- 8.4------------
1956-10-25 11.3 14.8 7.8 4.8 80.3- 7.7 3.0---- 4.8------------
1956-10-24 12.1 17.1 5.9 2.5 79.3- 4.0 1.0---- 0.0------------
1956-10-23 9.3 13.5 5.9 7.3 85.8- 2.7 3.0---- 0.0------------
1956-10-22 11.0 15.7 7.4 3.9 88.3- 5.3 3.0---- 0.0------------
1956-10-21 12.3 17.6 7.7 3.0 88.8- 0.7 2.7---- 0.0------------
1956-10-20 10.9 13.8 6.8 4.4 88.8- 8.0 2.7---- 0.0------------
1956-10-19 11.0 15.6 7.8 9.3 89.8- 7.7 2.0---- 0.2------------
1956-10-18 11.5 13.9 4.4 0.9 93.0- 7.7 2.3---- 4.1------------
1956-10-17 7.4 16.7 -0.4 -5.2 78.3- 2.7 2.0---- 0.0------------
1956-10-16 4.8 14.3 -3.2 -6.4 77.5- 0.0 0.3---- 0.0------------
1956-10-15 3.5 12.4 -1.1 -6.5 86.3- 0.0 0.7---- 0.0------------
1956-10-14 8.6 13.5 5.1 8.3 70.5- 1.7 3.3---- 0.0------------
1956-10-13 11.6 13.0 7.7 5.8 71.0- 8.0 6.0---- 0.2------------
1956-10-12 9.0 13.0 6.5 4.6 81.8- 3.7 4.3---- 0.0------------
1956-10-11 7.9 13.5 0.6 -2.9 74.0- 1.7 3.0---- 0.0------------
1956-10-10 3.4 10.4 -0.5 -6.8 82.0- 2.0 0.7---- 0.0------------
1956-10-09 7.4 8.6 2.9 0.6 90.3- 5.3 4.0---- 1.7------------
1956-10-08 4.8 9.3 0.4 -3.0 81.3- 7.3 3.3---- 0.0------------
1956-10-07 6.3 10.0 4.3 3.9 81.8- 4.7 5.7---- 0.0------------
1956-10-06 6.7 8.2 5.5 4.2 83.0- 5.0 5.0---- 0.3------------
1956-10-05 8.7 13.0 4.8 5.6 87.3- 7.7 2.0---- 1.0------------
1956-10-04 11.0 15.9 5.0 0.8 80.3- 5.0 1.7---- 1.3------------
1956-10-03 12.5 17.5 7.9 8.9 85.8- 5.0 3.7---- 0.1------------
1956-10-02 16.4 24.9 9.5 5.0 82.0- 0.3 2.7---- 0.0------------
1956-10-01 15.3 23.9 7.7 3.3 84.8- 2.0 2.0---- 0.0------------
1956-09-30 11.3 16.8 8.2 7.6 89.5- 3.7 2.3---- 0.0------------
1956-09-29 14.0 19.4 11.4 13.7 88.0- 4.7 4.3---- 0.4------------
1956-09-28 16.0 19.4 12.1 8.4 75.3- 6.3 6.3---- 0.0------------
1956-09-27 15.9 22.9 10.5 5.0 81.5- 1.3 3.0---- 0.0------------
1956-09-26 14.8 23.7 7.3 2.1 71.5- 0.0 4.3---- 0.0------------
1956-09-25 13.1 23.2 3.3 0.9 72.8- 0.0 4.3---- 0.0------------
1956-09-24 10.2 17.2 5.3 2.8 62.0- 0.0 5.7---- 0.0------------
1956-09-23 12.2 19.2 8.0 5.6 79.0- 0.0 5.3---- 0.0------------
1956-09-22 13.6 19.7 3.6 1.8 66.8- 0.0 4.0---- 0.0------------
1956-09-21 11.0 18.8 2.7 -0.7 84.3- 0.0 0.0---- 0.0------------
1956-09-20 9.4 18.3 3.7 -1.9 85.0- 3.7 0.0---- 0.0------------
1956-09-19 8.4 16.6 1.5 -1.9 83.0- 0.7 0.7---- 0.0------------
1956-09-18 8.2 15.2 3.4 -0.4 85.3- 3.0 2.0---- 0.0------------
1956-09-17 9.2 12.9 7.8 7.6 89.8- 5.3 2.7---- 8.2------------
1956-09-16 10.8 15.8 4.4 0.2 77.8- 5.0 3.7---- 1.4------------
1956-09-15 10.4 15.6 6.9 2.6 84.8- 7.0 3.0---- 0.0------------
1956-09-14 10.3 17.3 4.8 2.6 87.8- 3.0 1.0---- 0.0------------
1956-09-13 10.2 15.0 7.4 5.5 83.8- 1.3 4.3---- 4.1------------
1956-09-12 11.6 15.6 8.3 11.8 84.0- 4.3 4.3---- 8.6------------
1956-09-11 14.7 18.2 13.2 11.2 91.8- 6.7 1.7---- 8.5------------
215.3 ms

 

Źródłem pochodzenia danych jest Instytut Meteorologii i Gospodarki Wodnej – Państwowy Instytut Badawczy. Dane Instytutu Meteorologii i Gospodarki Wodnej – Państwowego Instytutu Badawczego zostały przetworzone.

Dane źródłowe można odnaleźć na stronie https://dane.imgw.pl